Rota, MP

6:59 AM ChST on August 01, 2014 (GMT +1000)
Rota I International (PGRO) Elev 607 ft | 14.17 °N, 145.24 °E | Change Station

Current weather conditions updated 29 minutes ago

Mostly Cloudy
Mostly Cloudy
79 °F
Feels Like 79 °F
N
7
Wind Variable Wind from SSE

Today is forecast to be nearly the same temperature as yesterday. Morning thunderstorms.

Today
High -- | Low -- °F
--% Chance of Precip.
Yesterday
High -- | Low -- °F
Precip. -- in
6:02 AM 6:47 PM
Waxing Crescent, 21% visible
Pressure 29.84 in
Visibility 7.0 miles
Clouds Few 6000 ft
Mostly Cloudy 15000 ft
Dew Point 75 °F
Humidity 89%
Rainfall 0.00 in
Snow Depth Not available.
UV 0 out of 12
Pollen Not available.
Air Quality Not available.
Flu Activity Not available.
SPECI PGRO 312030Z 16006KT 7SM FEW FEW060 BKN150 26/24 A2984 RMK FIRST

More Conditions Fewer Conditions

Pressure 29.84 in
Visibility 7.0 miles
Clouds Few 6000 ft
Mostly Cloudy 15000 ft
Dew Point 75 °F
Humidity 89%
Rainfall 0.00 in
Snow Depth Not available.
UV 0 out of 12
Pollen Not available.
Air Quality Not available.
Flu Activity Not available.
SPECI PGRO 312030Z 16006KT 7SM FEW FEW060 BKN150 26/24 A2984 RMK FIRST

More Conditions Fewer Conditions

10-Day Weather Forecast

Almanac

Astronomy

Aug. 01, 2014 Rise Set
Actual Time 6:02 AM ChST 6:47 PM ChST
Civil Twilight 5:40 AM ChST 7:10 PM ChST
Nautical Twilight 5:13 AM ChST 7:36 PM ChST
Astronomical Twilight 4:46 AM ChST 8:03 PM ChST
Moon 9:56 AM ChST (8/1) 10:09 PM ChST (8/1)
Length of Visible Light 13h 30m
Length of Day
12h 44m
Tomorrow will be 0m 35s shorter.
Waxing Crescent, 21% of the Moon is Illuminated
Jul 31
Waxing Crescent
Aug 3
First Quarter
Aug 10
Full
Aug 17
Last Quarter
Aug 25
New

Community

WunderPhotos

Upload Photos

1,739,450 photos uploaded!

Nearby

Snow Depth

Station Depth Elevation
No new snow has been reported.

Earthquake Activity

City Distance Mag. Time & Date
No recent earthquake activity has been reported nearby.
Minimum magnitude displayed is 2.5.

Coastal Water Temperatures

Place Temperature
No Stations Reporting

Nearby Weather Stations

There are no personal weather stations in this area.